Time;durP1;ratioP1;P1;durP2;ratioP2;P2;SDS_P1;SDS_P2;PMS_P1;PMS_P2;Temp;Humidity;BMP_temperature;BMP_pressure;BME280_temperature;BME280_humidity;BME280_pressure;Samples;Min_cycle;Max_cycle;Signal;HPM_P1;HPM_P2
2023/03/02 00:00:32;;;;;;;39.77;24.23;;;2.60;99.90;;;;;;5055585;28;20498;-67
2023/03/02 00:02:59;;;;;;;35.60;23.43;;;2.60;99.90;;;;;;5055456;28;20473;-67
2023/03/02 00:05:28;;;;;;;38.53;23.17;;;2.50;99.90;;;;;;5055664;28;20459;-68
2023/03/02 00:07:55;;;;;;;34.70;23.10;;;2.50;99.90;;;;;;5055123;28;20932;-68
2023/03/02 00:10:21;;;;;;;34.33;24.37;;;2.50;99.90;;;;;;5055470;28;20465;-68
2023/03/02 00:12:48;;;;;;;36.57;24.50;;;2.40;99.90;;;;;;5055119;28;20547;-68
2023/03/02 00:15:15;;;;;;;38.07;25.17;;;2.40;99.90;;;;;;5054958;28;21020;-69
2023/03/02 00:17:42;;;;;;;42.37;24.70;;;2.30;99.90;;;;;;5055318;28;20455;-68
2023/03/02 00:20:10;;;;;;;41.47;25.97;;;2.30;99.90;;;;;;5055093;28;20553;-68
2023/03/02 00:22:39;;;;;;;47.13;26.80;;;2.20;99.90;;;;;;5054319;28;20806;-67
2023/03/02 00:25:07;;;;;;;39.77;23.80;;;2.20;99.90;;;;;;5055022;28;20941;-68
2023/03/02 00:27:34;;;;;;;41.47;24.67;;;2.20;99.90;;;;;;5054934;28;20455;-67
2023/03/02 00:30:01;;;;;;;37.83;24.07;;;2.20;99.90;;;;;;5055735;28;20839;-67
2023/03/02 00:32:28;;;;;;;36.87;23.43;;;2.20;99.90;;;;;;5055246;28;20451;-67
2023/03/02 00:34:55;;;;;;;36.07;24.27;;;2.20;99.90;;;;;;5055594;28;20465;-67
2023/03/02 00:37:21;;;;;;;35.30;24.93;;;2.10;99.90;;;;;;5055267;28;20574;-66
2023/03/02 00:39:51;;;;;;;34.03;24.83;;;2.10;99.90;;;;;;5055812;28;20538;-67
2023/03/02 00:42:18;;;;;;;39.10;23.53;;;2.20;99.90;;;;;;5054718;28;20542;-67
2023/03/02 00:44:45;;;;;;;34.50;24.17;;;2.10;99.90;;;;;;5054865;28;20455;-68
2023/03/02 00:47:12;;;;;;;37.60;23.97;;;2.10;99.90;;;;;;5054981;28;20461;-69
2023/03/02 00:49:39;;;;;;;30.93;21.77;;;2.10;99.90;;;;;;5055663;28;20823;-68
2023/03/02 00:52:06;;;;;;;32.00;23.27;;;2.10;99.90;;;;;;5055023;28;20548;-67
2023/03/02 00:54:33;;;;;;;33.63;22.90;;;2.00;99.90;;;;;;5054560;28;20455;-68
2023/03/02 00:57:01;;;;;;;34.97;22.43;;;2.00;99.90;;;;;;5054719;28;20487;-67
2023/03/02 00:59:28;;;;;;;34.43;22.57;;;2.00;99.90;;;;;;5054777;28;20546;-68
2023/03/02 01:01:57;;;;;;;26.47;19.00;;;2.00;99.90;;;;;;5054760;28;20459;-68
2023/03/02 01:04:28;;;;;;;31.00;21.17;;;2.00;99.90;;;;;;5054474;28;20470;-67
2023/03/02 01:06:55;;;;;;;30.70;20.57;;;2.00;99.90;;;;;;5054706;28;20446;-67
2023/03/02 01:09:22;;;;;;;26.93;18.97;;;1.90;99.90;;;;;;5054498;28;20852;-69
2023/03/02 01:11:49;;;;;;;29.50;19.97;;;1.90;99.90;;;;;;5054746;28;20470;-68
2023/03/02 01:14:17;;;;;;;29.00;18.90;;;1.90;99.90;;;;;;5054502;28;20482;-67
2023/03/02 01:16:46;;;;;;;33.80;19.13;;;1.90;99.90;;;;;;5054340;28;20586;-67
2023/03/02 01:19:13;;;;;;;28.37;19.37;;;1.90;99.90;;;;;;5054643;28;20487;-68
2023/03/02 01:21:40;;;;;;;33.27;19.10;;;1.90;99.90;;;;;;5054189;28;20480;-68
2023/03/02 01:24:08;;;;;;;24.47;17.87;;;1.90;99.90;;;;;;5053988;28;20459;-66
2023/03/02 01:26:35;;;;;;;25.00;17.03;;;1.80;99.90;;;;;;5054161;28;20451;-68
2023/03/02 01:29:02;;;;;;;26.27;16.70;;;1.80;99.90;;;;;;5054330;28;20923;-67
2023/03/02 01:31:30;;;;;;;30.47;19.07;;;1.80;99.90;;;;;;5053969;28;20549;-68
2023/03/02 01:33:57;;;;;;;25.30;15.83;;;1.80;99.90;;;;;;5055071;28;20465;-67
2023/03/02 01:36:24;;;;;;;26.30;17.83;;;1.80;99.90;;;;;;5057297;28;20510;-67
2023/03/02 01:38:52;;;;;;;24.07;15.63;;;1.80;99.90;;;;;;5057504;28;20937;-68
2023/03/02 01:41:20;;;;;;;27.43;15.27;;;1.80;99.90;;;;;;5057762;28;20474;-68
2023/03/02 01:43:46;;;;;;;25.70;16.37;;;1.80;99.90;;;;;;5057685;28;20451;-68
2023/03/02 01:46:16;;;;;;;23.40;16.70;;;1.80;99.90;;;;;;5057464;28;20458;-66
2023/03/02 01:48:48;;;;;;;22.80;16.40;;;1.80;99.90;;;;;;5057468;28;20451;-67
2023/03/02 01:51:18;;;;;;;27.30;16.07;;;1.80;99.90;;;;;;5057456;28;20471;-67
2023/03/02 01:53:48;;;;;;;21.60;15.60;;;1.80;99.90;;;;;;5057345;28;20787;-67
2023/03/02 01:56:17;;;;;;;25.20;15.50;;;1.90;99.90;;;;;;5057214;28;20522;-67
2023/03/02 01:58:45;;;;;;;26.43;16.57;;;1.90;99.90;;;;;;5056921;28;20466;-66
2023/03/02 02:01:15;;;;;;;20.70;15.67;;;1.80;99.90;;;;;;5057200;28;20455;-67
2023/03/02 02:03:45;;;;;;;23.37;15.30;;;1.70;99.90;;;;;;5056921;28;20463;-67
2023/03/02 02:06:19;;;;;;;25.37;15.80;;;1.70;99.90;;;;;;5057533;28;20865;-67
2023/03/02 02:08:47;;;;;;;21.43;15.27;;;1.70;99.90;;;;;;5057754;28;20447;-65
2023/03/02 02:11:14;;;;;;;21.17;14.97;;;1.60;99.90;;;;;;5058031;28;20554;-66
2023/03/02 02:13:41;;;;;;;23.40;15.53;;;1.60;99.90;;;;;;5057405;28;20470;-66
2023/03/02 02:16:08;;;;;;;22.60;14.57;;;1.60;99.90;;;;;;5057185;28;20500;-65
2023/03/02 02:18:38;;;;;;;20.97;15.60;;;1.60;99.90;;;;;;5057677;28;20534;-65
2023/03/02 02:21:07;;;;;;;22.30;15.30;;;1.60;99.90;;;;;;5057528;28;20555;-67
2023/03/02 02:23:40;;;;;;;25.13;14.90;;;1.60;99.90;;;;;;5057530;28;20820;-66
2023/03/02 02:26:17;;;;;;;25.13;15.47;;;1.60;99.90;;;;;;5056985;28;20450;-67
2023/03/02 02:28:49;;;;;;;23.57;15.93;;;1.70;99.90;;;;;;5056791;28;20797;-67
2023/03/02 02:31:21;;;;;;;28.50;16.83;;;1.80;99.90;;;;;;5056818;28;20769;-67
2023/03/02 02:33:51;;;;;;;21.50;14.90;;;1.80;99.90;;;;;;5056468;28;20447;-68
2023/03/02 02:36:23;;;;;;;21.53;16.70;;;1.90;99.90;;;;;;5056413;28;20468;-67
2023/03/02 02:38:53;;;;;;;24.60;15.00;;;2.00;99.90;;;;;;5056750;28;20535;-67
2023/03/02 02:41:27;;;;;;;23.23;15.67;;;2.00;99.90;;;;;;5056682;28;20784;-67
2023/03/02 02:43:54;;;;;;;23.37;16.90;;;1.90;99.90;;;;;;5056599;28;20451;-67
2023/03/02 02:46:21;;;;;;;23.60;15.83;;;1.80;99.90;;;;;;5055694;28;20800;-67
2023/03/02 02:48:48;;;;;;;23.67;14.97;;;1.70;99.90;;;;;;5056263;28;20945;-67
2023/03/02 02:51:21;;;;;;;26.83;17.70;;;1.70;99.90;;;;;;5056414;28;20454;-67
2023/03/02 02:53:58;;;;;;;21.03;15.10;;;1.60;99.90;;;;;;5056893;28;20443;-67
2023/03/02 02:56:29;;;;;;;23.13;15.30;;;1.60;99.90;;;;;;5056278;28;20467;-66
2023/03/02 02:58:59;;;;;;;22.13;15.57;;;1.70;99.90;;;;;;5056088;28;20461;-67
2023/03/02 03:01:26;;;;;;;26.27;16.90;;;1.90;99.90;;;;;;5056297;28;20439;-67
2023/03/02 03:03:56;;;;;;;22.87;15.33;;;2.10;99.90;;;;;;5056293;28;20470;-67
2023/03/02 03:06:25;;;;;;;22.03;15.23;;;2.10;99.90;;;;;;5056174;28;20451;-67
2023/03/02 03:08:59;;;;;;;21.60;15.70;;;2.00;99.90;;;;;;5056056;28;20459;-67
2023/03/02 03:11:29;;;;;;;23.27;16.20;;;1.80;99.90;;;;;;5055774;28;20450;-67
2023/03/02 03:14:02;;;;;;;24.50;17.07;;;1.70;99.90;;;;;;5055819;28;20443;-67
2023/03/02 03:16:30;;;;;;;27.77;16.50;;;1.60;99.90;;;;;;5055878;28;20790;-67
2023/03/02 03:19:04;;;;;;;23.93;16.93;;;1.50;99.90;;;;;;5056226;28;20803;-68
2023/03/02 03:21:31;;;;;;;25.80;16.70;;;1.50;99.90;;;;;;5055921;28;20774;-67
2023/03/02 03:23:58;;;;;;;25.93;16.80;;;1.60;99.90;;;;;;5055945;28;20455;-67
2023/03/02 03:26:25;;;;;;;25.90;17.77;;;1.60;99.90;;;;;;5055658;28;20457;-67
2023/03/02 03:28:56;;;;;;;22.13;15.30;;;1.60;99.90;;;;;;5055300;28;20470;-67
2023/03/02 03:31:23;;;;;;;23.13;16.57;;;1.50;99.90;;;;;;5055786;28;20880;-67
2023/03/02 03:33:50;;;;;;;21.80;15.37;;;1.50;99.90;;;;;;5055542;28;20472;-67
2023/03/02 03:36:17;;;;;;;24.60;16.87;;;1.40;99.90;;;;;;5055506;28;20477;-66
2023/03/02 03:38:44;;;;;;;28.47;16.70;;;1.30;99.90;;;;;;5055109;28;20937;-66
2023/03/02 03:41:11;;;;;;;27.40;16.77;;;1.20;99.90;;;;;;5055596;28;20465;-65
2023/03/02 03:43:38;;;;;;;25.73;15.93;;;1.10;99.90;;;;;;5055412;28;20538;-67
2023/03/02 03:46:06;;;;;;;27.90;16.90;;;1.10;99.90;;;;;;5055160;28;20953;-67
2023/03/02 03:48:33;;;;;;;27.57;17.70;;;1.10;99.90;;;;;;5055309;28;20777;-67
2023/03/02 03:51:00;;;;;;;26.73;16.70;;;1.00;99.90;;;;;;5055778;28;20542;-67
2023/03/02 03:53:28;;;;;;;28.33;17.00;;;1.00;99.90;;;;;;5055275;28;20550;-66
2023/03/02 03:55:55;;;;;;;27.30;17.00;;;1.00;99.90;;;;;;5054809;28;20555;-66
2023/03/02 03:58:23;;;;;;;23.80;16.97;;;0.90;99.90;;;;;;5051172;28;20492;-67
2023/03/02 04:00:50;;;;;;;29.50;17.00;;;1.00;99.90;;;;;;5035255;28;20455;-67
2023/03/02 04:03:19;;;;;;;24.93;16.97;;;1.00;99.90;;;;;;5035299;28;20456;-67
2023/03/02 04:05:46;;;;;;;24.30;15.47;;;1.00;99.90;;;;;;5035286;28;20456;-67
2023/03/02 04:08:13;;;;;;;34.07;20.83;;;1.00;99.90;;;;;;5035113;28;20452;-67
2023/03/02 04:10:40;;;;;;;27.93;18.10;;;1.10;99.90;;;;;;5035273;28;20459;-66
2023/03/02 04:13:07;;;;;;;25.27;18.63;;;1.10;99.90;;;;;;5035126;28;20457;-67
2023/03/02 04:15:34;;;;;;;23.63;16.10;;;1.00;99.90;;;;;;5034965;28;20581;-67
2023/03/02 04:18:02;;;;;;;24.83;15.10;;;0.90;99.90;;;;;;5035331;28;20812;-66
2023/03/02 04:20:31;;;;;;;24.97;17.00;;;0.90;99.90;;;;;;5034864;28;20460;-67
2023/03/02 04:22:59;;;;;;;22.77;16.07;;;0.80;99.90;;;;;;5034740;28;20475;-67
2023/03/02 04:25:28;;;;;;;25.50;16.20;;;0.80;99.90;;;;;;5034720;28;20942;-66
2023/03/02 04:27:55;;;;;;;25.33;16.47;;;0.70;99.90;;;;;;5034996;28;20482;-68
2023/03/02 04:30:25;;;;;;;22.00;16.27;;;0.70;99.90;;;;;;5034954;28;20551;-67
2023/03/02 04:32:52;;;;;;;19.87;15.47;;;0.70;99.90;;;;;;5035037;28;20456;-66
2023/03/02 04:35:19;;;;;;;23.40;15.43;;;0.60;99.90;;;;;;5034628;28;20466;-67
2023/03/02 04:37:47;;;;;;;27.40;17.60;;;0.60;99.90;;;;;;5038218;28;20568;-67
2023/03/02 04:40:16;;;;;;;22.87;16.63;;;0.60;99.90;;;;;;5054794;28;20460;-67
2023/03/02 04:42:44;;;;;;;26.77;16.97;;;0.50;99.90;;;;;;5042506;28;20467;-65
2023/03/02 04:45:12;;;;;;;29.17;17.50;;;0.50;99.90;;;;;;5034886;28;20459;-67
2023/03/02 04:47:39;;;;;;;26.13;18.13;;;0.50;99.90;;;;;;5034869;28;20863;-67
2023/03/02 04:50:08;;;;;;;28.00;17.73;;;0.40;99.90;;;;;;5034620;28;20456;-66
2023/03/02 04:52:35;;;;;;;33.57;19.40;;;0.50;99.90;;;;;;5034709;28;20506;-67
2023/03/02 04:55:03;;;;;;;30.90;19.10;;;0.40;99.90;;;;;;5034524;28;20538;-67
2023/03/02 04:57:30;;;;;;;27.50;18.07;;;0.40;99.90;;;;;;5034553;28;20490;-67
2023/03/02 04:59:57;;;;;;;28.70;20.37;;;0.40;99.90;;;;;;5035028;28;20481;-67
2023/03/02 05:02:24;;;;;;;32.83;19.60;;;0.40;99.90;;;;;;5034813;28;20466;-67
2023/03/02 05:04:51;;;;;;;31.20;20.17;;;0.40;99.90;;;;;;5034468;28;20788;-67
2023/03/02 05:07:18;;;;;;;29.60;20.67;;;0.40;99.90;;;;;;5034817;28;20564;-67
2023/03/02 05:09:45;;;;;;;39.20;24.40;;;0.40;99.90;;;;;;5036556;28;20935;-68
2023/03/02 05:12:13;;;;;;;50.27;29.67;;;0.40;99.90;;;;;;5038241;28;20456;-67
2023/03/02 05:14:40;;;;;;;43.83;23.80;;;0.40;99.90;;;;;;5038007;28;20483;-67
2023/03/02 05:17:06;;;;;;;36.67;22.70;;;0.30;99.90;;;;;;5038065;28;20484;-67
2023/03/02 05:19:33;;;;;;;37.40;21.90;;;0.30;99.90;;;;;;5038231;28;20466;-67
2023/03/02 05:22:00;;;;;;;37.37;22.20;;;0.30;99.90;;;;;;5037943;28;20455;-67
2023/03/02 05:24:27;;;;;;;37.87;23.00;;;0.30;99.90;;;;;;5037894;28;20924;-67
2023/03/02 05:26:54;;;;;;;41.70;24.60;;;0.30;99.90;;;;;;5037671;28;20947;-67
2023/03/02 05:29:22;;;;;;;36.73;23.30;;;0.30;99.90;;;;;;5038005;28;20456;-67
2023/03/02 05:31:49;;;;;;;33.93;21.13;;;0.30;99.90;;;;;;5038064;28;20474;-67
2023/03/02 05:34:16;;;;;;;35.73;22.33;;;0.20;99.90;;;;;;5037909;28;20465;-67
2023/03/02 05:36:44;;;;;;;44.43;24.20;;;0.20;99.90;;;;;;5037478;28;20464;-67
2023/03/02 05:39:12;;;;;;;37.47;21.90;;;0.20;99.90;;;;;;5037893;28;20779;-67
2023/03/02 05:41:40;;;;;;;34.87;22.10;;;0.20;99.90;;;;;;5037551;28;20931;-66
2023/03/02 05:44:10;;;;;;;35.50;21.97;;;0.20;99.90;;;;;;5037506;28;20464;-67
2023/03/02 05:46:39;;;;;;;43.60;23.40;;;0.10;99.90;;;;;;5038516;28;20462;-67
2023/03/02 05:49:06;;;;;;;39.07;23.87;;;0.00;99.90;;;;;;5037364;28;20469;-65
2023/03/02 05:51:33;;;;;;;42.17;24.00;;;-0.10;99.90;;;;;;5037440;28;20498;-67
2023/03/02 05:54:00;;;;;;;40.70;22.33;;;-0.10;99.90;;;;;;5037670;28;20451;-67
2023/03/02 05:56:27;;;;;;;47.37;25.10;;;-0.20;99.90;;;;;;5037221;28;20534;-67
2023/03/02 05:58:53;;;;;;;44.20;23.60;;;-0.20;99.90;;;;;;5037658;28;20877;-67
2023/03/02 06:01:20;;;;;;;45.47;25.40;;;-0.30;99.90;;;;;;5037446;28;20456;-67
2023/03/02 06:03:48;;;;;;;135.93;61.70;;;-0.20;99.90;;;;;;5037189;28;20455;-67
2023/03/02 06:06:15;;;;;;;48.97;25.67;;;-0.30;99.90;;;;;;5037076;28;20546;-65
2023/03/02 06:08:42;;;;;;;48.43;25.77;;;-0.30;99.90;;;;;;5037414;28;20767;-67
2023/03/02 06:11:10;;;;;;;49.47;25.07;;;-0.40;99.90;;;;;;5037052;28;20456;-66
2023/03/02 06:13:37;;;;;;;47.53;21.97;;;-0.30;99.90;;;;;;5037198;28;20789;-66
2023/03/02 06:16:04;;;;;;;51.67;23.67;;;-0.40;99.90;;;;;;5036773;28;20494;-66
2023/03/02 06:18:31;;;;;;;52.37;23.70;;;-0.30;99.90;;;;;;5036950;28;20808;-66
2023/03/02 06:21:00;;;;;;;51.57;24.80;;;-0.30;99.90;;;;;;5035944;28;20462;-67
2023/03/02 06:23:27;;;;;;;58.40;25.97;;;-0.20;99.90;;;;;;5037131;28;20744;-67
2023/03/02 06:25:54;;;;;;;56.73;27.77;;;-0.10;99.90;;;;;;5036713;28;20466;-67
2023/03/02 06:28:21;;;;;;;58.47;26.73;;;-0.20;99.90;;;;;;5036886;28;20566;-67
2023/03/02 06:30:49;;;;;;;51.73;25.23;;;-0.20;99.90;;;;;;5036537;28;20460;-66
2023/03/02 06:33:17;;;;;;;52.77;25.87;;;-0.20;99.90;;;;;;5036692;28;20456;-67
2023/03/02 06:35:43;;;;;;;59.20;27.40;;;-0.30;99.90;;;;;;5036710;28;20460;-67
2023/03/02 06:38:12;;;;;;;52.63;24.27;;;-0.30;99.90;;;;;;5036501;28;20480;-67
2023/03/02 06:40:39;;;;;;;50.83;23.83;;;-0.30;99.90;;;;;;5036816;28;20455;-67
2023/03/02 06:43:05;;;;;;;95.57;48.20;;;-0.30;99.90;;;;;;5036195;28;20456;-66
2023/03/02 06:45:33;;;;;;;51.83;24.97;;;-0.50;99.90;;;;;;5036109;28;20460;-66
2023/03/02 06:48:00;;;;;;;50.60;22.80;;;-0.50;99.90;;;;;;5036250;28;20555;-66
2023/03/02 06:50:28;;;;;;;48.00;25.60;;;-0.60;99.90;;;;;;5036530;28;20456;-67
2023/03/02 06:52:54;;;;;;;43.40;22.43;;;-0.60;99.90;;;;;;5036579;28;20557;-67
2023/03/02 06:55:23;;;;;;;54.07;25.90;;;-0.60;99.90;;;;;;5036093;28;20466;-67
2023/03/02 06:57:50;;;;;;;50.57;24.90;;;-0.60;99.90;;;;;;5036055;28;20479;-67
2023/03/02 07:00:23;;;;;;;40.50;20.83;;;-0.70;99.90;;;;;;5036052;28;20466;-67
2023/03/02 07:02:51;;;;;;;45.33;22.47;;;-0.70;99.90;;;;;;5035936;28;20462;-66
2023/03/02 07:05:18;;;;;;;42.23;20.80;;;-0.70;99.90;;;;;;5035813;28;20470;-67
2023/03/02 07:07:45;;;;;;;42.70;19.80;;;-0.70;99.90;;;;;;5036167;28;20802;-67
2023/03/02 07:10:12;;;;;;;44.37;20.80;;;-0.70;99.90;;;;;;5035645;28;20474;-66
2023/03/02 07:12:41;;;;;;;41.47;19.23;;;-0.60;99.90;;;;;;5035754;28;20460;-67
2023/03/02 07:15:10;;;;;;;52.40;22.57;;;-0.60;99.90;;;;;;5035524;28;20480;-67
2023/03/02 07:17:37;;;;;;;54.33;21.17;;;-0.60;99.90;;;;;;5035766;28;20804;-67
2023/03/02 07:20:05;;;;;;;44.63;23.13;;;-0.50;99.90;;;;;;5035778;28;20464;-67
2023/03/02 07:22:32;;;;;;;42.37;20.93;;;-0.50;99.90;;;;;;5035726;28;20492;-66
2023/03/02 07:24:59;;;;;;;49.57;22.33;;;-0.50;99.90;;;;;;5035632;28;20466;-66
2023/03/02 07:27:26;;;;;;;39.20;21.10;;;-0.50;99.90;;;;;;5035724;28;20531;-67
2023/03/02 07:29:54;;;;;;;43.13;21.60;;;-0.50;99.90;;;;;;5035747;28;20856;-67
2023/03/02 07:32:21;;;;;;;50.73;20.90;;;-0.40;99.90;;;;;;5035112;28;20912;-68
2023/03/02 07:34:47;;;;;;;40.07;20.07;;;-0.40;99.90;;;;;;5035373;28;20535;-67
2023/03/02 07:37:14;;;;;;;39.97;20.00;;;-0.40;99.90;;;;;;5034919;28;20474;-67
2023/03/02 07:39:41;;;;;;;48.20;20.60;;;-0.40;99.90;;;;;;5035222;28;20490;-67
2023/03/02 07:42:10;;;;;;;45.73;23.07;;;-0.50;99.90;;;;;;5035189;28;20969;-67
2023/03/02 07:44:37;;;;;;;46.73;20.80;;;-0.50;99.90;;;;;;5035362;28;20558;-67
2023/03/02 07:47:05;;;;;;;50.30;22.97;;;-0.40;99.90;;;;;;5035081;28;20466;-67
2023/03/02 07:49:34;;;;;;;60.43;23.40;;;-0.40;99.90;;;;;;5035130;28;20462;-67
2023/03/02 07:52:01;;;;;;;54.90;21.43;;;-0.30;99.90;;;;;;5035260;28;20460;-67
2023/03/02 07:54:29;;;;;;;44.20;22.20;;;-0.20;99.90;;;;;;5035828;28;20460;-67
2023/03/02 07:56:56;;;;;;;49.00;21.43;;;0.00;99.90;;;;;;5035014;28;20817;-67
2023/03/02 07:59:23;;;;;;;44.47;21.67;;;-0.10;99.90;;;;;;5034765;28;20490;-67
2023/03/02 08:01:50;;;;;;;52.10;25.37;;;-0.10;99.90;;;;;;5034771;28;20799;-66
2023/03/02 08:04:18;;;;;;;52.60;26.50;;;-0.10;99.90;;;;;;5034686;28;20466;-67
2023/03/02 08:06:45;;;;;;;44.67;22.50;;;0.00;99.90;;;;;;5034772;28;20462;-66
2023/03/02 08:09:12;;;;;;;43.13;22.50;;;0.10;99.90;;;;;;5034881;28;20466;-67
2023/03/02 08:11:39;;;;;;;48.77;22.67;;;0.20;99.90;;;;;;5034767;28;20455;-67
2023/03/02 08:14:06;;;;;;;45.40;20.60;;;0.20;99.90;;;;;;5034667;28;20484;-67
2023/03/02 08:16:32;;;;;;;42.30;20.20;;;0.20;99.90;;;;;;5035122;28;20450;-67
2023/03/02 08:18:59;;;;;;;43.97;21.33;;;0.20;99.90;;;;;;5038747;28;20479;-68
2023/03/02 08:21:29;;;;;;;47.00;22.10;;;0.20;99.90;;;;;;5054560;28;20543;-66
2023/03/02 08:23:57;;;;;;;38.50;20.73;;;0.20;99.90;;;;;;5054508;28;20485;-67
2023/03/02 08:26:24;;;;;;;42.23;20.40;;;0.20;99.90;;;;;;5054604;28;20455;-68
2023/03/02 08:28:51;;;;;;;36.70;20.43;;;0.20;99.90;;;;;;5052836;28;20451;-66
2023/03/02 08:31:18;;;;;;;38.33;20.77;;;0.20;99.90;;;;;;5054927;28;20459;-67
2023/03/02 08:33:45;;;;;;;46.13;21.17;;;0.20;99.90;;;;;;5054280;28;20469;-67
2023/03/02 08:36:14;;;;;;;39.50;21.77;;;0.20;99.90;;;;;;5054670;28;20485;-67
2023/03/02 08:38:43;;;;;;;47.00;22.73;;;0.30;99.90;;;;;;5054002;28;20939;-67
2023/03/02 08:41:12;;;;;;;41.20;21.47;;;0.40;99.90;;;;;;5034391;28;20789;-68
2023/03/02 08:43:39;;;;;;;40.07;22.17;;;0.40;99.90;;;;;;5033970;28;20452;-67
2023/03/02 08:46:06;;;;;;;36.13;21.27;;;0.40;99.90;;;;;;5034361;28;20456;-67
2023/03/02 08:48:33;;;;;;;46.67;24.40;;;0.50;99.90;;;;;;5034407;28;20462;-67
2023/03/02 08:51:03;;;;;;;47.87;24.40;;;0.50;99.90;;;;;;5034129;28;20487;-66
2023/03/02 08:53:33;;;;;;;40.43;21.10;;;0.50;99.90;;;;;;5034290;28;20896;-67
2023/03/02 08:56:02;;;;;;;44.83;22.13;;;0.60;99.90;;;;;;5034076;28;20476;-67
2023/03/02 08:58:29;;;;;;;44.80;21.97;;;0.60;99.90;;;;;;5034174;28;20484;-67
2023/03/02 09:00:56;;;;;;;40.87;20.83;;;0.60;99.90;;;;;;5034340;28;20456;-67
2023/03/02 09:03:23;;;;;;;49.30;24.10;;;0.70;99.90;;;;;;5034520;28;20551;-67
2023/03/02 09:05:50;;;;;;;46.07;24.57;;;0.70;99.90;;;;;;5034551;28;20504;-67
2023/03/02 09:08:16;;;;;;;49.17;21.50;;;0.80;99.90;;;;;;5035240;28;20540;-67
2023/03/02 09:10:43;;;;;;;47.60;24.50;;;1.00;99.90;;;;;;5035012;28;20931;-67
2023/03/02 09:13:11;;;;;;;49.80;25.07;;;1.10;99.90;;;;;;5034009;28;20452;-67
2023/03/02 09:15:39;;;;;;;39.67;22.40;;;1.30;99.90;;;;;;5034215;28;20514;-67
2023/03/02 09:18:06;;;;;;;36.00;21.03;;;1.50;99.90;;;;;;5034461;28;20474;-67
2023/03/02 09:20:34;;;;;;;39.43;22.07;;;1.70;99.90;;;;;;5034607;28;20544;-66
2023/03/02 09:23:00;;;;;;;35.47;20.10;;;1.80;99.90;;;;;;5034268;28;20466;-68
2023/03/02 09:25:27;;;;;;;35.00;21.40;;;1.80;99.90;;;;;;5034278;28;20939;-68
2023/03/02 09:27:54;;;;;;;40.27;23.37;;;1.90;99.90;;;;;;5034253;28;20462;-67
2023/03/02 09:30:22;;;;;;;35.10;19.80;;;1.70;99.90;;;;;;5034760;28;20456;-67
2023/03/02 09:32:49;;;;;;;38.27;22.33;;;1.70;99.90;;;;;;5034547;28;20453;-66
2023/03/02 09:35:16;;;;;;;36.73;21.20;;;1.80;99.90;;;;;;5034833;28;20554;-67
2023/03/02 09:37:43;;;;;;;38.00;19.30;;;1.80;99.90;;;;;;5034261;28;20467;-68
2023/03/02 09:40:18;;;;;;;36.60;20.27;;;2.00;99.90;;;;;;5035891;28;20468;-67
2023/03/02 09:43:02;;;;;;;33.53;19.50;;;2.10;99.90;;;;;;5034425;28;20444;-68
2023/03/02 09:45:43;;;;;;;30.80;18.40;;;2.20;99.90;;;;;;5034145;28;20762;-67
2023/03/02 09:48:16;;;;;;;37.13;21.10;;;2.20;99.90;;;;;;5033893;28;20444;-67
2023/03/02 09:50:56;;;;;;;36.53;19.17;;;2.10;99.90;;;;;;5034106;28;20450;-67
2023/03/02 09:53:35;;;;;;;31.17;19.40;;;2.10;99.90;;;;;;5034887;28;20451;-67
2023/03/02 09:56:03;;;;;;;33.80;18.40;;;2.20;99.90;;;;;;5035439;28;20466;-67
2023/03/02 09:58:34;;;;;;;27.60;17.90;;;2.20;99.90;;;;;;5037438;28;20479;-67
2023/03/02 10:01:09;;;;;;;30.10;17.30;;;2.40;99.90;;;;;;5037353;28;20440;-65
2023/03/02 10:03:40;;;;;;;29.43;18.57;;;2.70;99.90;;;;;;5036990;28;20444;-67
2023/03/02 10:06:09;;;;;;;31.30;19.07;;;2.90;99.90;;;;;;5037193;28;20771;-67
2023/03/02 10:08:39;;;;;;;26.80;16.83;;;3.00;99.90;;;;;;5037143;28;20955;-67
2023/03/02 10:11:19;;;;;;;30.17;18.07;;;3.00;99.90;;;;;;5037090;28;20907;-67
2023/03/02 10:13:49;;;;;;;26.67;17.60;;;3.10;99.90;;;;;;5036909;28;20444;-67
2023/03/02 10:16:26;;;;;;;27.23;18.20;;;3.10;99.90;;;;;;5037214;28;20519;-67
2023/03/02 10:19:04;;;;;;;30.00;18.60;;;3.10;99.90;;;;;;5037082;28;20490;-67
2023/03/02 10:21:36;;;;;;;23.07;14.57;;;3.20;99.90;;;;;;5037194;28;20455;-67
2023/03/02 10:24:13;;;;;;;23.77;15.97;;;3.30;99.90;;;;;;5037076;28;20527;-67
2023/03/02 10:26:42;;;;;;;31.47;18.40;;;3.30;99.90;;;;;;5036967;28;20771;-68
2023/03/02 10:29:40;;;;;;;24.43;17.40;;;3.10;99.90;;;;;;5036587;28;20466;-67
2023/03/02 10:32:18;;;;;;;24.80;16.80;;;3.10;99.90;;;;;;5037055;28;20448;-68
2023/03/02 10:34:45;;;;;;;38.47;18.33;;;3.20;99.90;;;;;;5036910;28;20772;-68
2023/03/02 10:37:14;;;;;;;26.13;18.27;;;3.50;99.90;;;;;;5036656;28;20460;-67
2023/03/02 10:39:41;;;;;;;26.20;17.77;;;3.50;99.90;;;;;;5036742;28;20480;-67
2023/03/02 10:42:15;;;;;;;29.93;18.80;;;3.70;99.90;;;;;;5036725;28;20528;-68
2023/03/02 10:44:46;;;;;;;27.13;17.33;;;3.80;99.90;;;;;;5036918;28;20444;-66
2023/03/02 10:47:22;;;;;;;23.67;15.90;;;3.80;99.90;;;;;;5037012;28;20828;-68
2023/03/02 10:49:49;;;;;;;26.80;15.77;;;3.90;99.90;;;;;;5036848;28;20444;-67
2023/03/02 10:52:18;;;;;;;25.73;15.57;;;3.90;99.90;;;;;;5036491;28;20811;-67
2023/03/02 10:54:46;;;;;;;24.87;16.17;;;3.90;99.90;;;;;;5036464;28;20570;-67
2023/03/02 10:57:30;;;;;;;26.53;16.77;;;3.70;99.90;;;;;;5036353;28;20460;-67
2023/03/02 11:00:01;;;;;;;25.27;16.70;;;3.80;99.90;;;;;;5036186;28;20468;-67
2023/03/02 11:02:32;;;;;;;22.13;15.30;;;3.70;99.90;;;;;;5036199;28;20454;-67
2023/03/02 11:05:19;;;;;;;25.87;15.87;;;3.60;99.90;;;;;;5036053;28;20445;-67
2023/03/02 11:07:52;;;;;;;22.60;15.70;;;3.60;99.90;;;;;;5035619;28;20916;-67
2023/03/02 11:10:21;;;;;;;22.80;15.17;;;3.60;99.90;;;;;;5035973;28;20447;-67
2023/03/02 11:12:50;;;;;;;26.83;15.33;;;3.60;99.90;;;;;;5035613;28;20519;-67
2023/03/02 11:15:25;;;;;;;27.33;15.60;;;3.70;99.90;;;;;;5035525;28;20488;-66
2023/03/02 11:18:03;;;;;;;26.27;15.27;;;3.60;99.90;;;;;;5035921;28;20803;-67
2023/03/02 11:20:33;;;;;;;25.47;16.80;;;3.70;99.90;;;;;;5035727;28;20468;-68
2023/03/02 11:23:08;;;;;;;20.63;14.43;;;3.70;99.90;;;;;;5035339;28;20460;-68
2023/03/02 11:25:41;;;;;;;25.80;16.37;;;3.90;99.90;;;;;;5035453;28;20523;-67
2023/03/02 11:28:16;;;;;;;30.10;16.83;;;4.10;99.90;;;;;;5036523;28;20741;-66
2023/03/02 11:30:49;;;;;;;28.87;15.20;;;4.20;99.90;;;;;;5035894;28;20440;-66
2023/03/02 11:33:25;;;;;;;24.13;16.13;;;4.30;99.90;;;;;;5035572;28;20475;-67
2023/03/02 11:35:54;;;;;;;21.67;14.40;;;4.60;99.90;;;;;;5035796;28;20435;-66
2023/03/02 11:38:25;;;;;;;24.10;16.60;;;4.80;99.90;;;;;;5035357;28;20456;-67
2023/03/02 11:40:56;;;;;;;26.73;16.73;;;5.10;99.90;;;;;;5035626;28;20498;-67
2023/03/02 11:43:23;;;;;;;26.67;17.20;;;5.20;99.90;;;;;;5035757;28;20436;-66
2023/03/02 11:45:57;;;;;;;21.23;15.23;;;5.50;99.90;;;;;;5035632;28;20452;-66
2023/03/02 11:48:30;;;;;;;24.17;15.00;;;5.70;99.90;;;;;;5035778;28;20501;-67
2023/03/02 11:51:00;;;;;;;20.87;14.20;;;6.00;99.90;;;;;;5037049;28;20444;-67
2023/03/02 11:53:31;;;;;;;19.97;14.70;;;6.10;99.90;;;;;;5036129;28;20546;-67
2023/03/02 11:55:58;;;;;;;18.83;14.30;;;6.20;99.90;;;;;;5035254;28;20745;-67
2023/03/02 11:58:28;;;;;;;21.13;15.97;;;6.30;99.90;;;;;;5034991;28;20456;-67
2023/03/02 12:00:56;;;;;;;22.90;15.70;;;6.50;99.90;;;;;;5034915;28;20799;-68
2023/03/02 12:03:40;;;;;;;19.23;14.40;;;6.70;99.90;;;;;;5034992;28;20548;-67
2023/03/02 12:06:24;;;;;;;19.63;14.27;;;7.00;99.90;;;;;;5034892;28;20527;-67
2023/03/02 12:08:54;;;;;;;16.37;12.30;;;7.40;99.90;;;;;;5034835;28;20440;-67
2023/03/02 12:11:35;;;;;;;16.77;12.53;;;8.30;99.90;;;;;;5034989;28;20460;-67
2023/03/02 12:14:04;;;;;;;16.67;12.10;;;9.40;99.90;;;;;;5034781;28;20848;-68
2023/03/02 12:16:37;;;;;;;17.47;11.77;;;10.60;99.90;;;;;;5034971;28;20448;-67
2023/03/02 12:19:14;;;;;;;18.73;13.33;;;11.40;99.90;;;;;;5033761;28;20543;-68
2023/03/02 12:21:42;;;;;;;17.30;12.73;;;11.90;99.90;;;;;;5034935;28;20451;-68
2023/03/02 12:24:24;;;;;;;30.50;19.77;;;12.80;99.90;;;;;;5034396;28;20460;-68
2023/03/02 12:27:01;;;;;;;15.13;12.10;;;14.00;94.70;;;;;;5034479;28;20456;-67
2023/03/02 12:29:39;;;;;;;14.90;12.17;;;14.90;75.00;;;;;;5035041;28;20443;-66
2023/03/02 12:32:22;;;;;;;16.13;12.70;;;15.70;70.50;;;;;;5034503;28;20450;-67
2023/03/02 12:34:55;;;;;;;17.27;12.13;;;16.50;56.60;;;;;;5035695;28;20440;-68
2023/03/02 12:37:25;;;;;;;16.80;12.83;;;16.60;47.40;;;;;;5035176;28;20454;-67
2023/03/02 12:40:28;;;;;;;14.97;12.10;;;17.10;46.30;;;;;;5035093;28;20468;-68
2023/03/02 12:43:30;;;;;;;18.37;14.00;;;17.40;43.60;;;;;;5034457;28;20450;-67
2023/03/02 12:46:25;;;;;;;15.10;13.03;;;17.40;39.00;;;;;;5034727;28;20444;-67